createdAt,value
2023-03-12T00:00:12.903Z,2.95
2023-03-12T00:02:39.742Z,2.94
2023-03-12T00:05:07.146Z,2.93
2023-03-12T00:07:36.307Z,2.91
2023-03-12T00:10:05.608Z,2.88
2023-03-12T00:12:32.465Z,2.88
2023-03-12T00:14:59.628Z,2.88
2023-03-12T00:17:26.459Z,2.86
2023-03-12T00:19:55.322Z,2.87
2023-03-12T00:22:23.033Z,2.85
2023-03-12T00:24:55.109Z,2.86
2023-03-12T00:27:23.386Z,2.82
2023-03-12T00:29:50.198Z,2.83
2023-03-12T00:32:17.129Z,2.82
2023-03-12T00:34:44.235Z,2.83
2023-03-12T00:37:11.210Z,2.83
2023-03-12T00:39:38.054Z,2.82
2023-03-12T00:42:05.028Z,2.81
2023-03-12T00:44:32.376Z,2.82
2023-03-12T00:46:59.226Z,2.82
2023-03-12T00:49:26.421Z,2.82
2023-03-12T00:51:54.041Z,2.81
2023-03-12T00:54:21.519Z,2.81
2023-03-12T00:56:48.859Z,2.80
2023-03-12T00:59:16.391Z,2.80
2023-03-12T01:01:44.938Z,2.81
2023-03-12T01:04:12.094Z,2.79
2023-03-12T01:06:38.895Z,2.78
2023-03-12T01:09:07.956Z,2.78
2023-03-12T01:11:36.230Z,2.78
2023-03-12T01:14:05.177Z,2.78
2023-03-12T01:16:32.084Z,2.77
2023-03-12T01:19:01.701Z,2.77
2023-03-12T01:21:30.103Z,2.77
2023-03-12T01:23:58.508Z,2.75
2023-03-12T01:26:25.757Z,2.75
2023-03-12T01:28:52.574Z,2.75
2023-03-12T01:31:20.115Z,2.75
2023-03-12T01:33:51.962Z,2.75
2023-03-12T01:36:29.030Z,2.74
2023-03-12T01:38:58.705Z,2.72
2023-03-12T01:41:28.183Z,2.69
2023-03-12T01:43:55.059Z,2.67
2023-03-12T01:46:43.027Z,2.66
2023-03-12T01:49:15.371Z,2.63
2023-03-12T01:51:59.820Z,2.60
2023-03-12T01:54:39.138Z,2.58
2023-03-12T01:57:12.936Z,2.57
2023-03-12T01:59:52.881Z,2.55
2023-03-12T02:02:31.200Z,2.53
2023-03-12T02:05:13.612Z,2.52
2023-03-12T02:07:40.404Z,2.48
2023-03-12T02:10:07.390Z,2.48
2023-03-12T02:12:34.138Z,2.46
2023-03-12T02:15:01.147Z,2.47
2023-03-12T02:17:27.973Z,2.46
2023-03-12T02:20:32.443Z,2.43
2023-03-12T02:23:26.698Z,2.39
2023-03-12T02:25:54.447Z,2.34
2023-03-12T02:28:24.616Z,2.33
2023-03-12T02:30:54.272Z,2.35
2023-03-12T02:33:21.054Z,2.37
2023-03-12T02:35:48.722Z,2.39
2023-03-12T02:38:42.274Z,2.42
2023-03-12T02:41:24.374Z,2.42
2023-03-12T02:44:01.424Z,2.45
2023-03-12T02:46:33.588Z,2.43
2023-03-12T02:49:01.127Z,2.43
2023-03-12T02:51:27.887Z,2.45
2023-03-12T02:53:57.673Z,2.43
2023-03-12T02:56:27.253Z,2.40
2023-03-12T02:58:54.500Z,2.38
2023-03-12T03:01:21.675Z,2.36
2023-03-12T03:03:48.741Z,2.33
2023-03-12T03:06:16.325Z,2.33
2023-03-12T03:08:43.499Z,2.31
2023-03-12T03:11:10.281Z,2.30
2023-03-12T03:13:37.102Z,2.30
2023-03-12T03:16:04.407Z,2.31
2023-03-12T03:18:31.588Z,2.31
2023-03-12T03:21:04.617Z,2.33
2023-03-12T03:23:32.295Z,2.30
2023-03-12T03:25:59.594Z,2.30
2023-03-12T03:28:29.211Z,2.27
2023-03-12T03:31:00.794Z,2.27
2023-03-12T03:33:29.168Z,2.25
2023-03-12T03:35:59.327Z,2.25
2023-03-12T03:38:28.587Z,2.23
2023-03-12T03:40:55.798Z,2.24
2023-03-12T03:43:24.124Z,2.24
2023-03-12T03:46:03.348Z,2.25
2023-03-12T03:48:30.374Z,2.24
2023-03-12T03:51:01.951Z,2.25
2023-03-12T03:53:28.988Z,2.25
2023-03-12T03:55:55.783Z,2.26
2023-03-12T03:58:23.000Z,2.25
2023-03-12T04:00:49.787Z,2.26
2023-03-12T04:03:16.644Z,2.24
2023-03-12T04:05:46.288Z,2.25
2023-03-12T04:08:13.700Z,2.27
2023-03-12T04:10:41.073Z,2.26
2023-03-12T04:13:07.871Z,2.28
2023-03-12T04:15:34.659Z,2.31
2023-03-12T04:18:01.462Z,2.34
2023-03-12T04:20:28.297Z,2.35
2023-03-12T04:22:55.056Z,2.36
2023-03-12T04:25:21.823Z,2.38
2023-03-12T04:27:48.616Z,2.40
2023-03-12T04:30:15.471Z,2.39
2023-03-12T04:32:42.317Z,2.40
2023-03-12T04:35:09.268Z,2.41
2023-03-12T04:37:36.133Z,2.40
2023-03-12T04:40:07.389Z,2.40
2023-03-12T04:42:35.631Z,2.37
2023-03-12T04:45:04.562Z,2.37
2023-03-12T04:47:32.917Z,2.34
2023-03-12T04:50:00.214Z,2.30
2023-03-12T04:52:27.528Z,2.30
2023-03-12T04:54:55.071Z,2.28
2023-03-12T04:57:22.230Z,2.28
2023-03-12T04:59:49.106Z,2.29
2023-03-12T05:02:15.885Z,2.29
2023-03-12T05:04:42.686Z,2.29
2023-03-12T05:07:09.533Z,2.29
2023-03-12T05:09:36.375Z,2.31
2023-03-12T05:12:03.304Z,2.30
2023-03-12T05:14:30.120Z,2.33
2023-03-12T05:16:56.887Z,2.34
2023-03-12T05:19:23.687Z,2.36
2023-03-12T05:21:50.468Z,2.38
2023-03-12T05:24:17.951Z,2.38
2023-03-12T05:26:44.808Z,2.39
2023-03-12T05:29:11.580Z,2.42
2023-03-12T05:31:38.433Z,2.43
2023-03-12T05:34:05.839Z,2.47
2023-03-12T05:36:32.585Z,2.52
2023-03-12T05:38:59.354Z,2.57
2023-03-12T05:41:28.975Z,2.63
2023-03-12T05:43:57.831Z,2.68
2023-03-12T05:46:26.985Z,2.74
2023-03-12T05:48:54.386Z,2.78
2023-03-12T05:51:21.649Z,2.83
2023-03-12T05:53:48.416Z,2.86
2023-03-12T05:56:19.004Z,2.91
2023-03-12T05:58:49.726Z,2.96
2023-03-12T06:01:28.996Z,3.00
2023-03-12T06:03:56.213Z,3.02
2023-03-12T06:06:23.463Z,3.06
2023-03-12T06:08:51.335Z,3.09
2023-03-12T06:11:18.292Z,3.14
2023-03-12T06:13:45.057Z,3.15
2023-03-12T06:16:21.565Z,3.22
2023-03-12T06:18:48.941Z,3.25
2023-03-12T06:21:19.397Z,3.30
2023-03-12T06:23:47.273Z,3.36
2023-03-12T06:26:15.314Z,3.43
2023-03-12T06:28:42.777Z,3.48
2023-03-12T06:31:09.904Z,3.55
2023-03-12T06:33:36.916Z,3.59
2023-03-12T06:36:06.615Z,3.66
2023-03-12T06:38:34.560Z,3.71
2023-03-12T06:41:11.220Z,3.76
2023-03-12T06:43:39.659Z,3.80
2023-03-12T06:46:09.868Z,3.84
2023-03-12T06:48:37.243Z,3.91
2023-03-12T06:51:04.776Z,3.96
2023-03-12T06:53:32.539Z,4.00
2023-03-12T06:55:59.663Z,4.06
2023-03-12T06:58:26.754Z,4.11
2023-03-12T07:00:54.060Z,4.17
2023-03-12T07:03:21.685Z,4.22
2023-03-12T07:05:50.760Z,4.26
2023-03-12T07:08:18.694Z,4.30
2023-03-12T07:10:46.239Z,4.35
2023-03-12T07:13:13.264Z,4.41
2023-03-12T07:15:40.623Z,4.47
2023-03-12T07:18:12.100Z,4.56
2023-03-12T07:20:42.939Z,4.64
2023-03-12T07:23:10.988Z,4.72
2023-03-12T07:25:40.821Z,4.78
2023-03-12T07:28:08.681Z,4.81
2023-03-12T07:30:36.215Z,4.85
2023-03-12T07:33:06.387Z,4.88
2023-03-12T07:35:33.587Z,4.92
2023-03-12T07:38:01.907Z,4.95
2023-03-12T07:40:30.202Z,5.01
2023-03-12T07:42:57.156Z,5.08
2023-03-12T07:45:24.883Z,5.15
2023-03-12T07:47:52.015Z,5.23
2023-03-12T07:50:19.829Z,5.32
2023-03-12T07:52:47.945Z,5.43
2023-03-12T07:55:16.332Z,5.57
2023-03-12T07:57:43.237Z,5.76
2023-03-12T08:00:11.195Z,5.92
2023-03-12T08:02:38.841Z,6.05
2023-03-12T08:05:06.478Z,6.16
2023-03-12T08:07:35.061Z,6.29
2023-03-12T08:10:04.264Z,6.39
2023-03-12T08:12:31.156Z,6.46
2023-03-12T08:14:58.017Z,6.55
2023-03-12T08:17:25.068Z,6.64
2023-03-12T08:19:51.991Z,6.70
2023-03-12T08:22:18.795Z,6.75
2023-03-12T08:24:45.549Z,6.80
2023-03-12T08:27:12.381Z,6.81
2023-03-12T08:29:40.685Z,6.85
2023-03-12T08:32:08.233Z,6.89
2023-03-12T08:34:35.511Z,6.91
2023-03-12T08:37:03.282Z,6.98
2023-03-12T08:39:30.321Z,7.04
2023-03-12T08:41:57.088Z,7.11
2023-03-12T08:44:24.710Z,7.19
2023-03-12T08:46:52.605Z,7.22
2023-03-12T08:49:20.588Z,7.22
2023-03-12T08:51:47.710Z,7.23
2023-03-12T08:54:14.785Z,7.24
2023-03-12T08:56:44.432Z,7.28
2023-03-12T08:59:12.712Z,7.31
2023-03-12T09:01:43.060Z,7.36
2023-03-12T09:04:15.014Z,7.42
2023-03-12T09:06:41.977Z,7.51
2023-03-12T09:09:09.013Z,7.57
2023-03-12T09:11:39.539Z,7.59
2023-03-12T09:16:53.449Z,7.65
2023-03-12T09:19:20.977Z,7.71
2023-03-12T09:21:47.724Z,7.75
2023-03-12T09:24:14.566Z,7.79
2023-03-12T09:26:41.463Z,7.81
2023-03-12T09:29:08.293Z,7.85
2023-03-12T09:31:36.362Z,7.92
2023-03-12T09:34:04.705Z,7.97
2023-03-12T09:36:31.833Z,8.04
2023-03-12T09:38:58.813Z,8.12
2023-03-12T09:41:29.750Z,8.22
2023-03-12T09:44:04.061Z,8.28
2023-03-12T09:46:44.958Z,8.39
2023-03-12T09:49:34.923Z,8.47
2023-03-12T09:52:11.794Z,8.51
2023-03-12T09:54:49.527Z,8.55
2023-03-12T09:57:24.205Z,8.58
2023-03-12T09:59:52.254Z,8.60
2023-03-12T10:02:57.776Z,8.69
2023-03-12T10:05:41.294Z,8.80
2023-03-12T10:08:30.535Z,8.95
2023-03-12T10:11:08.206Z,9.10
2023-03-12T10:13:40.985Z,9.19
2023-03-12T10:16:26.931Z,9.28
2023-03-12T10:19:05.749Z,9.32
2023-03-12T10:21:50.219Z,9.34
2023-03-12T10:24:45.716Z,9.31
2023-03-12T10:27:16.693Z,9.28
2023-03-12T10:29:51.065Z,9.32
2023-03-12T10:32:24.333Z,9.35
2023-03-12T10:35:13.977Z,9.40
2023-03-12T10:37:47.816Z,9.44
2023-03-12T10:40:17.342Z,9.43
2023-03-12T10:42:44.386Z,9.46
2023-03-12T10:45:11.074Z,9.47
2023-03-12T10:47:57.165Z,9.52
2023-03-12T10:50:28.304Z,9.56
2023-03-12T10:53:32.943Z,9.59
2023-03-12T10:56:01.180Z,9.61
2023-03-12T10:58:38.517Z,9.65
2023-03-12T11:01:28.552Z,9.66
2023-03-12T11:04:25.604Z,9.64
2023-03-12T11:07:06.329Z,9.64
2023-03-12T11:09:33.136Z,9.61
2023-03-12T11:11:59.900Z,9.62
2023-03-12T11:14:29.711Z,9.64
2023-03-12T11:17:19.843Z,9.64
2023-03-12T11:19:46.612Z,9.63
2023-03-12T11:22:15.938Z,9.62
2023-03-12T11:25:27.232Z,9.59
2023-03-12T11:27:59.687Z,9.55
2023-03-12T11:30:37.080Z,9.50
2023-03-12T11:33:04.211Z,9.42
2023-03-12T11:35:44.401Z,9.37
2023-03-12T11:38:31.839Z,9.31
2023-03-12T11:41:25.349Z,9.25
2023-03-12T11:44:28.772Z,9.21
2023-03-12T11:47:18.632Z,9.18
2023-03-12T11:50:08.511Z,9.18
2023-03-12T11:53:07.118Z,9.19
2023-03-12T11:55:43.742Z,9.21
2023-03-12T11:58:26.833Z,9.23
2023-03-12T12:01:22.298Z,9.22
2023-03-12T12:04:04.803Z,9.25
2023-03-12T12:06:53.175Z,9.31
2023-03-12T12:09:57.399Z,9.32
2023-03-12T12:12:51.286Z,9.31
2023-03-12T12:15:58.812Z,9.30
2023-03-12T12:18:58.613Z,9.25
2023-03-12T12:21:46.026Z,9.20
2023-03-12T12:24:39.115Z,9.16
2023-03-12T12:27:20.646Z,9.10
2023-03-12T12:30:19.243Z,9.06
2023-03-12T12:33:27.856Z,8.99
2023-03-12T12:35:54.691Z,8.96
2023-03-12T12:38:35.772Z,8.92
2023-03-12T12:41:26.414Z,8.88
2023-03-12T12:44:02.157Z,8.83
2023-03-12T12:46:36.092Z,8.78
2023-03-12T12:49:28.340Z,8.70
2023-03-12T12:52:01.079Z,8.63
2023-03-12T12:54:47.155Z,8.57
2023-03-12T12:57:24.920Z,8.53
2023-03-12T13:00:39.753Z,8.48
2023-03-12T13:03:07.295Z,8.43
2023-03-12T13:05:36.985Z,8.43
2023-03-12T13:08:08.627Z,8.45
2023-03-12T13:10:35.355Z,8.45
2023-03-12T13:13:29.385Z,8.45
2023-03-12T13:16:36.369Z,8.44
2023-03-12T13:19:21.481Z,8.43
2023-03-12T13:22:10.628Z,8.41
2023-03-12T13:24:55.597Z,8.41
2023-03-12T13:27:42.640Z,8.40
2023-03-12T13:30:34.473Z,8.40
2023-03-12T13:33:03.786Z,8.38
2023-03-12T13:35:41.570Z,8.35
2023-03-12T13:38:18.644Z,8.29
2023-03-12T13:40:51.456Z,8.25
2023-03-12T13:43:37.821Z,8.23
2023-03-12T13:46:16.844Z,8.19
2023-03-12T13:48:48.954Z,8.15
2023-03-12T13:51:22.306Z,8.14
2023-03-12T13:53:54.816Z,8.13
2023-03-12T13:56:28.903Z,8.11
2023-03-12T13:59:05.093Z,8.08
2023-03-12T14:01:39.365Z,8.07
2023-03-12T14:04:17.010Z,8.06
2023-03-12T14:07:28.668Z,8.03
2023-03-12T14:10:47.829Z,8.01
2023-03-12T14:13:51.547Z,7.96
2023-03-12T14:16:28.264Z,7.97
2023-03-12T14:18:55.241Z,7.99
2023-03-12T14:21:23.687Z,8.03
2023-03-12T14:23:57.821Z,8.07
2023-03-12T14:26:28.235Z,8.07
2023-03-12T14:29:01.586Z,8.07
2023-03-12T14:31:30.901Z,8.07
2023-03-12T14:34:20.654Z,8.09
2023-03-12T14:37:16.409Z,8.08
2023-03-12T14:40:44.204Z,8.05
2023-03-12T14:43:42.466Z,8.01
2023-03-12T14:46:24.376Z,8.01
2023-03-12T14:48:55.428Z,7.98
2023-03-12T14:51:28.886Z,7.96
2023-03-12T14:53:57.328Z,7.97
2023-03-12T14:56:33.304Z,7.97
2023-03-12T14:59:22.985Z,7.97
2023-03-12T15:01:50.273Z,7.98
2023-03-12T15:04:21.145Z,7.99
2023-03-12T15:06:51.274Z,8.00
2023-03-12T15:09:29.141Z,8.03
2023-03-12T15:12:00.256Z,8.05
2023-03-12T15:14:30.469Z,8.07
2023-03-12T15:16:59.406Z,8.11
2023-03-12T15:19:33.622Z,8.14
2023-03-12T15:22:01.130Z,8.13
2023-03-12T15:24:30.498Z,8.14
2023-03-12T15:26:57.338Z,8.17
2023-03-12T15:29:27.930Z,8.20
2023-03-12T15:31:58.303Z,8.23
2023-03-12T15:34:37.547Z,8.26
2023-03-12T15:37:38.042Z,8.25
2023-03-12T15:40:22.484Z,8.22
2023-03-12T15:42:50.044Z,8.19
2023-03-12T15:45:21.965Z,8.17
2023-03-12T15:47:50.919Z,8.18
2023-03-12T15:50:43.554Z,8.17
2023-03-12T15:53:16.381Z,8.16
2023-03-12T15:56:09.395Z,8.15
2023-03-12T15:58:40.168Z,8.12
2023-03-12T16:01:23.814Z,8.07
2023-03-12T16:03:50.660Z,8.06
2023-03-12T16:06:27.931Z,8.05
2023-03-12T16:09:06.108Z,8.03
2023-03-12T16:11:36.206Z,8.02
2023-03-12T16:14:20.424Z,8.01
2023-03-12T16:16:47.567Z,8.00
2023-03-12T16:19:16.859Z,8.00
2023-03-12T16:21:44.381Z,7.99
2023-03-12T16:24:11.462Z,7.99
2023-03-12T16:26:53.606Z,8.02
2023-03-12T16:29:21.672Z,8.01
2023-03-12T16:31:55.382Z,8.03
2023-03-12T16:34:22.660Z,8.03
2023-03-12T16:36:49.611Z,8.06
2023-03-12T16:39:18.753Z,8.07
2023-03-12T16:41:46.365Z,8.10
2023-03-12T16:44:19.980Z,8.13
2023-03-12T16:46:47.195Z,8.14
2023-03-12T16:49:16.250Z,8.13
2023-03-12T16:51:43.281Z,8.15
2023-03-12T16:54:12.008Z,8.15
2023-03-12T16:56:43.841Z,8.18
2023-03-12T16:59:25.916Z,8.18
2023-03-12T17:01:52.961Z,8.19
2023-03-12T17:04:19.987Z,8.19
2023-03-12T17:06:46.843Z,8.21
2023-03-12T17:09:13.735Z,8.20
2023-03-12T17:11:40.901Z,8.22
2023-03-12T17:14:18.924Z,8.24
2023-03-12T17:16:45.811Z,8.24
2023-03-12T17:19:12.621Z,8.25
2023-03-12T17:21:40.058Z,8.28
2023-03-12T17:24:07.274Z,8.26
2023-03-12T17:26:35.292Z,8.27
2023-03-12T17:29:02.269Z,8.29
2023-03-12T17:31:29.143Z,8.29
2023-03-12T17:33:56.403Z,8.28
2023-03-12T17:36:23.197Z,8.29
2023-03-12T17:38:51.051Z,8.31
2023-03-12T17:41:25.975Z,8.30
2023-03-12T17:43:55.073Z,8.31
2023-03-12T17:46:22.031Z,8.31
2023-03-12T17:48:48.855Z,8.32
2023-03-12T17:51:15.637Z,8.33
2023-03-12T17:53:42.468Z,8.32
2023-03-12T17:56:12.278Z,8.31
2023-03-12T17:58:39.271Z,8.31
2023-03-12T18:01:06.073Z,8.32
2023-03-12T18:03:32.943Z,8.33
2023-03-12T18:05:59.936Z,8.33
2023-03-12T18:08:26.718Z,8.35
2023-03-12T18:10:53.521Z,8.33
2023-03-12T18:13:20.363Z,8.33
2023-03-12T18:15:57.292Z,8.35
2023-03-12T18:18:26.475Z,8.33
2023-03-12T18:20:53.761Z,8.35
2023-03-12T18:23:20.738Z,8.35
2023-03-12T18:25:48.639Z,8.36
2023-03-12T18:28:15.533Z,8.36
2023-03-12T18:30:47.480Z,8.40
2023-03-12T18:33:14.909Z,8.40
2023-03-12T18:35:43.954Z,8.41
2023-03-12T18:38:10.918Z,8.43
2023-03-12T18:40:37.766Z,8.43
2023-03-12T18:43:04.738Z,8.43
2023-03-12T18:45:31.578Z,8.45
2023-03-12T18:47:58.520Z,8.45
2023-03-12T18:50:25.328Z,8.46
2023-03-12T18:52:52.132Z,8.48
2023-03-12T18:55:18.987Z,8.49
2023-03-12T18:57:47.531Z,8.50
2023-03-12T19:00:19.641Z,8.52
2023-03-12T19:02:50.181Z,8.50
2023-03-12T19:05:17.194Z,8.51
2023-03-12T19:07:44.550Z,8.50
2023-03-12T19:10:13.198Z,8.49
2023-03-12T19:12:51.718Z,8.46
2023-03-12T19:15:21.465Z,8.43
2023-03-12T19:17:48.334Z,8.39
2023-03-12T19:20:15.571Z,8.36
2023-03-12T19:22:42.403Z,8.33
2023-03-12T19:25:10.361Z,8.31
2023-03-12T19:27:37.132Z,8.30
2023-03-12T19:30:04.635Z,8.29
2023-03-12T19:32:42.265Z,8.31
2023-03-12T19:35:11.840Z,8.32
2023-03-12T19:37:38.676Z,8.33
2023-03-12T19:40:06.696Z,8.35
2023-03-12T19:42:33.937Z,8.36
2023-03-12T19:45:00.725Z,8.38
2023-03-12T19:47:28.009Z,8.38
2023-03-12T19:49:54.804Z,8.36
2023-03-12T19:52:21.614Z,8.36
2023-03-12T19:55:01.482Z,8.36
2023-03-12T19:57:31.552Z,8.34
2023-03-12T19:59:58.777Z,8.32
2023-03-12T20:02:26.251Z,8.30
2023-03-12T20:04:53.294Z,8.31
2023-03-12T20:07:20.060Z,8.31
2023-03-12T20:09:46.840Z,8.30
2023-03-12T20:12:13.669Z,8.29
2023-03-12T20:14:42.639Z,8.32
2023-03-12T20:17:11.055Z,8.35
2023-03-12T20:19:38.796Z,8.38
2023-03-12T20:22:06.517Z,8.37
2023-03-12T20:24:33.309Z,8.36
2023-03-12T20:27:00.135Z,8.36
2023-03-12T20:29:26.916Z,8.38
2023-03-12T20:31:53.785Z,8.41
2023-03-12T20:34:20.692Z,8.44
2023-03-12T20:36:47.538Z,8.46
2023-03-12T20:39:14.346Z,8.52
2023-03-12T20:41:41.186Z,8.55
2023-03-12T20:44:07.960Z,8.59
2023-03-12T20:46:34.787Z,8.63
2023-03-12T20:49:01.559Z,8.66
2023-03-12T20:51:28.324Z,8.72
2023-03-12T20:53:55.141Z,8.74
2023-03-12T20:56:21.920Z,8.76
2023-03-12T20:58:48.677Z,8.78
2023-03-12T21:01:15.527Z,8.79
2023-03-12T21:03:42.386Z,8.82
2023-03-12T21:06:09.182Z,8.83
2023-03-12T21:08:36.056Z,8.84
2023-03-12T21:11:06.628Z,8.86
2023-03-12T21:13:33.694Z,8.88
2023-03-12T21:16:00.487Z,8.90
2023-03-12T21:18:28.874Z,8.91
2023-03-12T21:21:04.776Z,8.95
2023-03-12T21:23:32.403Z,8.96
2023-03-12T21:26:02.285Z,8.97
2023-03-12T21:28:29.630Z,8.96
2023-03-12T21:31:04.218Z,8.96
2023-03-12T21:33:31.060Z,8.96
2023-03-12T21:35:57.879Z,8.95
2023-03-12T21:38:24.743Z,8.96
2023-03-12T21:40:54.079Z,8.97
2023-03-12T21:43:20.958Z,8.98
2023-03-12T21:45:47.754Z,8.98
2023-03-12T21:48:14.529Z,9.01
2023-03-12T21:50:41.370Z,9.01
2023-03-12T21:53:22.825Z,9.02
2023-03-12T21:56:01.501Z,9.01
2023-03-12T21:58:30.552Z,8.97
2023-03-12T22:01:12.933Z,8.97
2023-03-12T22:03:40.701Z,8.96
2023-03-12T22:06:08.058Z,8.98
2023-03-12T22:08:36.181Z,8.99
2023-03-12T22:11:04.093Z,9.01
2023-03-12T22:13:31.057Z,9.02
2023-03-12T22:16:08.054Z,9.05
2023-03-12T22:18:43.648Z,9.07
2023-03-12T22:21:19.208Z,9.09
2023-03-12T22:23:50.952Z,9.09
2023-03-12T22:26:19.551Z,9.11
2023-03-12T22:28:51.406Z,9.14
2023-03-12T22:31:19.623Z,9.16
2023-03-12T22:33:47.014Z,9.18
2023-03-12T22:36:15.378Z,9.21
2023-03-12T22:38:42.577Z,9.24
2023-03-12T22:41:23.283Z,9.28
2023-03-12T22:43:53.556Z,9.30
2023-03-12T22:46:22.855Z,9.31
2023-03-12T22:48:55.340Z,9.35
2023-03-12T22:51:23.333Z,9.35
2023-03-12T22:53:50.283Z,9.36
2023-03-12T22:56:17.927Z,9.41
2023-03-12T22:58:44.974Z,9.40
2023-03-12T23:01:18.961Z,9.44
2023-03-12T23:03:46.741Z,9.44
2023-03-12T23:06:22.848Z,9.47
2023-03-12T23:08:51.129Z,9.48
2023-03-12T23:11:19.558Z,9.49
2023-03-12T23:13:48.088Z,9.50
2023-03-12T23:16:19.287Z,9.52
2023-03-12T23:18:47.182Z,9.54
2023-03-12T23:21:21.354Z,9.55
2023-03-12T23:23:49.599Z,9.52
2023-03-12T23:26:24.257Z,9.53
2023-03-12T23:28:53.288Z,9.55
2023-03-12T23:31:21.136Z,9.59
2023-03-12T23:33:48.102Z,9.63
2023-03-12T23:36:18.620Z,9.64
2023-03-12T23:38:47.132Z,9.67
2023-03-12T23:41:24.204Z,9.71
2023-03-12T23:43:52.162Z,9.72
2023-03-12T23:46:20.079Z,9.75
2023-03-12T23:48:47.197Z,9.78
2023-03-12T23:51:27.418Z,9.81
2023-03-12T23:54:00.875Z,9.84
2023-03-12T23:56:34.095Z,9.87
2023-03-12T23:59:01.060Z,9.89
